Plainwell, Michigan
Current Conditions -  °F | °C
As of 10:53 PM on Saturday 25 Oct 2014 (Local Time) from KAZO Reporting Station
Clear Clear  
Wind Chill: 57°   Ceiling: Unl
Heat Index: 57°   Visibility: 10mi
Dew Point: 29°   Wind: 13mph
Humidity: 34%   Direction: 310°NW
Pressure: 29.9"   Gusts: 25mph
Location:  42.44°N, 85.65°W
Report Text: KAZO 260253Z AUTO 31011G22KT 10SM CLR 14/M02 A2990 RMK AO2 SLP124 T01391017 53011 $
Loading
Personal Weather Stations






























Interactive Weather Map
Tropical Storm Tracking
New forecast layout! Learn more

10-Day Weather Forecast

Advertisements
Track Severe Weather on mobile